This is the latest recevied weather packets stored in our database for station/object IU3IOK-3. If no packets are shown the sender has not sent any weather packets the latest 10 day(s).
| Time | Temp. | Humidity | Pressure | Rain* | Wind** | Luminosity | Snow |
|---|---|---|---|---|---|---|---|
| 1777800401 | 24.44° C | 35% | 1018.4 hPa | - | - | - | - |
| 1777799501 | 25° C | 35% | 1018.5 hPa | - | - | - | - |
| 1777798601 | 23.89° C | 36% | 1018.5 hPa | - | - | - | - |
| 1777797701 | 23.33° C | 38% | 1018.6 hPa | - | - | - | - |
| 1777796801 | 23.33° C | 38% | 1018.6 hPa | - | - | - | - |
| 1777795901 | 23.33° C | 39% | 1018.7 hPa | - | - | - | - |
| 1777795001 | 23.33° C | 40% | 1018.8 hPa | - | - | - | - |
| 1777794101 | 22.78° C | 40% | 1018.9 hPa | - | - | - | - |
| 1777793201 | 22.78° C | 41% | 1018.9 hPa | - | - | - | - |
| 1777792301 | 22.78° C | 42% | 1018.9 hPa | - | - | - | - |
| 1777791401 | 22.78° C | 41% | 1018.9 hPa | - | - | - | - |
| 1777790501 | 22.22° C | 41% | 1018.9 hPa | - | - | - | - |
| 1777789601 | 22.78° C | 42% | 1018.8 hPa | - | - | - | - |
| 1777788701 | 21.67° C | 44% | 1018.8 hPa | - | - | - | - |
| 1777787801 | 21.11° C | 46% | 1018.8 hPa | - | - | - | - |
| 1777786901 | 20° C | 49% | 1018.9 hPa | - | - | - | - |
| 1777786001 | 18.33° C | 52% | 1018.9 hPa | - | - | - | - |
| 1777785101 | 16.67° C | 57% | 1018.9 hPa | - | - | - | - |
| 1777784201 | 15° C | 62% | 1019 hPa | - | - | - | - |
| 1777783301 | 14.44° C | 63% | 1019 hPa | - | - | - | - |
| 1777782401 | 14.44° C | 64% | 1019 hPa | - | - | - | - |
| 1777781501 | 14.44° C | 63% | 1019 hPa | - | - | - | - |
| 1777780601 | 14.44° C | 63% | 1018.9 hPa | - | - | - | - |
| 1777779701 | 14.44° C | 62% | 1018.9 hPa | - | - | - | - |
| 1777778801 | 14.44° C | 62% | 1018.9 hPa | - | - | - | - |
* Rain since midnight (hover to see other rain measurements)
** Current wind speed in m/s (hover to see current wind gust speed)